sensor_id;sensor_type;location;lat;lon;timestamp;pressure;altitude;pressure_sealevel;temperature;humidity
81005;BME280;70472;47.592;17.640;2024-02-14T00:00:11;100392.59;;;-1.09;91.48
81005;BME280;70472;47.592;17.640;2024-02-14T00:00:44;100386.31;;;-1.06;92.25
81005;BME280;70472;47.592;17.640;2024-02-14T00:01:16;100394.78;;;-1.01;91.55
81005;BME280;70472;47.592;17.640;2024-02-14T00:01:49;100398.34;;;-1.02;91.82
81005;BME280;70472;47.592;17.640;2024-02-14T00:02:22;100393.94;;;-1.02;91.84
81005;BME280;70472;47.592;17.640;2024-02-14T00:02:54;100387.66;;;-0.99;91.62
81005;BME280;70472;47.592;17.640;2024-02-14T00:03:27;100393.88;;;-1.00;91.41
81005;BME280;70472;47.592;17.640;2024-02-14T00:03:59;100391.41;;;-1.03;91.60
81005;BME280;70472;47.592;17.640;2024-02-14T00:04:32;100384.44;;;-1.04;91.20
81005;BME280;70472;47.592;17.640;2024-02-14T00:05:05;100394.97;;;-1.04;91.03
81005;BME280;70472;47.592;17.640;2024-02-14T00:05:37;100389.13;;;-1.10;91.06
81005;BME280;70472;47.592;17.640;2024-02-14T00:06:10;100389.03;;;-1.08;91.42
81005;BME280;70472;47.592;17.640;2024-02-14T00:06:42;100390.06;;;-1.11;90.94
81005;BME280;70472;47.592;17.640;2024-02-14T00:07:15;100397.09;;;-1.11;91.03
81005;BME280;70472;47.592;17.640;2024-02-14T00:07:47;100398.03;;;-1.12;91.73
81005;BME280;70472;47.592;17.640;2024-02-14T00:08:20;100392.94;;;-1.15;91.34
81005;BME280;70472;47.592;17.640;2024-02-14T00:08:52;100397.34;;;-1.16;91.35
81005;BME280;70472;47.592;17.640;2024-02-14T00:09:25;100387.75;;;-1.17;91.62
81005;BME280;70472;47.592;17.640;2024-02-14T00:09:57;100394.81;;;-1.17;91.69
81005;BME280;70472;47.592;17.640;2024-02-14T00:10:29;100397.59;;;-1.20;90.90
81005;BME280;70472;47.592;17.640;2024-02-14T00:11:02;100396.66;;;-1.19;90.98
81005;BME280;70472;47.592;17.640;2024-02-14T00:11:34;100399.56;;;-1.24;91.93
81005;BME280;70472;47.592;17.640;2024-02-14T00:12:07;100394.38;;;-1.25;91.87
81005;BME280;70472;47.592;17.640;2024-02-14T00:12:39;100392.59;;;-1.25;91.54
81005;BME280;70472;47.592;17.640;2024-02-14T00:13:12;100399.72;;;-1.27;91.91
81005;BME280;70472;47.592;17.640;2024-02-14T00:13:44;100391.84;;;-1.27;91.06
81005;BME280;70472;47.592;17.640;2024-02-14T00:14:17;100399.56;;;-1.24;91.38
81005;BME280;70472;47.592;17.640;2024-02-14T00:14:50;100397.50;;;-1.19;91.53
81005;BME280;70472;47.592;17.640;2024-02-14T00:15:22;100396.75;;;-1.21;91.77
81005;BME280;70472;47.592;17.640;2024-02-14T00:15:55;100401.50;;;-1.27;91.27
81005;BME280;70472;47.592;17.640;2024-02-14T00:16:28;100395.56;;;-1.31;91.20
81005;BME280;70472;47.592;17.640;2024-02-14T00:17:00;100396.59;;;-1.33;91.28
81005;BME280;70472;47.592;17.640;2024-02-14T00:17:33;100391.41;;;-1.35;91.49
81005;BME280;70472;47.592;17.640;2024-02-14T00:18:06;100396.84;;;-1.38;91.31
81005;BME280;70472;47.592;17.640;2024-02-14T00:18:39;100394.97;;;-1.36;91.74
81005;BME280;70472;47.592;17.640;2024-02-14T00:19:11;100394.03;;;-1.35;92.49
81005;BME280;70472;47.592;17.640;2024-02-14T00:19:44;100396.75;;;-1.37;91.77
81005;BME280;70472;47.592;17.640;2024-02-14T00:20:16;100389.03;;;-1.40;91.50
81005;BME280;70472;47.592;17.640;2024-02-14T00:20:49;100393.44;;;-1.40;92.28
81005;BME280;70472;47.592;17.640;2024-02-14T00:21:21;100400.41;;;-1.39;91.94
81005;BME280;70472;47.592;17.640;2024-02-14T00:21:54;100397.69;;;-1.38;92.77
81005;BME280;70472;47.592;17.640;2024-02-14T00:22:26;100393.34;;;-1.39;92.00
81005;BME280;70472;47.592;17.640;2024-02-14T00:22:58;100390.06;;;-1.42;92.56
81005;BME280;70472;47.592;17.640;2024-02-14T00:23:31;100397.16;;;-1.44;92.39
81005;BME280;70472;47.592;17.640;2024-02-14T00:24:04;100398.72;;;-1.40;91.99
81005;BME280;70472;47.592;17.640;2024-02-14T00:24:36;100396.94;;;-1.40;92.54
81005;BME280;70472;47.592;17.640;2024-02-14T00:25:09;100402.28;;;-1.41;92.13
81005;BME280;70472;47.592;17.640;2024-02-14T00:25:41;100401.44;;;-1.42;92.50
81005;BME280;70472;47.592;17.640;2024-02-14T00:26:14;100401.44;;;-1.42;92.47
81005;BME280;70472;47.592;17.640;2024-02-14T00:26:46;100397.06;;;-1.43;92.71
81005;BME280;70472;47.592;17.640;2024-02-14T00:27:19;100401.94;;;-1.35;92.92
81005;BME280;70472;47.592;17.640;2024-02-14T00:27:51;100405.41;;;-1.35;92.17
81005;BME280;70472;47.592;17.640;2024-02-14T00:28:24;100405.31;;;-1.33;92.90
81005;BME280;70472;47.592;17.640;2024-02-14T00:28:56;100407.34;;;-1.38;91.99
81005;BME280;70472;47.592;17.640;2024-02-14T00:29:29;100405.84;;;-1.42;92.15
81005;BME280;70472;47.592;17.640;2024-02-14T00:30:01;100400.72;;;-1.45;92.69
81005;BME280;70472;47.592;17.640;2024-02-14T00:30:34;100406.16;;;-1.48;92.16
81005;BME280;70472;47.592;17.640;2024-02-14T00:31:06;100400.81;;;-1.47;92.35
81005;BME280;70472;47.592;17.640;2024-02-14T00:31:39;100411.03;;;-1.41;92.61
81005;BME280;70472;47.592;17.640;2024-02-14T00:32:14;100410.09;;;-1.40;92.46
81005;BME280;70472;47.592;17.640;2024-02-14T00:32:46;100406.41;;;-1.37;92.76
81005;BME280;70472;47.592;17.640;2024-02-14T00:33:20;100399.56;;;-1.40;92.46
81005;BME280;70472;47.592;17.640;2024-02-14T00:33:53;100400.50;;;-1.41;92.71
81005;BME280;70472;47.592;17.640;2024-02-14T00:34:25;100402.28;;;-1.41;92.58
81005;BME280;70472;47.592;17.640;2024-02-14T00:34:58;100407.53;;;-1.41;92.78
81005;BME280;70472;47.592;17.640;2024-02-14T00:35:30;100403.28;;;-1.44;91.98
81005;BME280;70472;47.592;17.640;2024-02-14T00:36:03;100399.97;;;-1.47;92.04
81005;BME280;70472;47.592;17.640;2024-02-14T00:36:35;100407.94;;;-1.49;92.63
81005;BME280;70472;47.592;17.640;2024-02-14T00:37:08;100406.84;;;-1.45;91.92
81005;BME280;70472;47.592;17.640;2024-02-14T00:37:42;100409.38;;;-1.43;92.53
81005;BME280;70472;47.592;17.640;2024-02-14T00:38:14;100406.75;;;-1.43;92.85
81005;BME280;70472;47.592;17.640;2024-02-14T00:38:46;100412.63;;;-1.38;92.38
81005;BME280;70472;47.592;17.640;2024-02-14T00:39:19;100403.78;;;-1.37;92.53
81005;BME280;70472;47.592;17.640;2024-02-14T00:39:51;100410.22;;;-1.43;92.42
81005;BME280;70472;47.592;17.640;2024-02-14T00:40:24;100399.88;;;-1.46;92.61
81005;BME280;70472;47.592;17.640;2024-02-14T00:40:56;100411.25;;;-1.45;91.96
81005;BME280;70472;47.592;17.640;2024-02-14T00:41:29;100404.22;;;-1.45;92.40
81005;BME280;70472;47.592;17.640;2024-02-14T00:42:01;100413.13;;;-1.47;92.41
81005;BME280;70472;47.592;17.640;2024-02-14T00:42:34;100407.69;;;-1.44;91.89
81005;BME280;70472;47.592;17.640;2024-02-14T00:43:06;100410.41;;;-1.46;92.14
81005;BME280;70472;47.592;17.640;2024-02-14T00:43:39;100405.16;;;-1.46;92.75
81005;BME280;70472;47.592;17.640;2024-02-14T00:44:12;100406.94;;;-1.46;92.02
81005;BME280;70472;47.592;17.640;2024-02-14T00:44:44;100412.94;;;-1.44;91.95
81005;BME280;70472;47.592;17.640;2024-02-14T00:45:17;100409.13;;;-1.39;92.15
81005;BME280;70472;47.592;17.640;2024-02-14T00:45:49;100407.44;;;-1.40;92.24
81005;BME280;70472;47.592;17.640;2024-02-14T00:46:21;100407.53;;;-1.41;92.98
81005;BME280;70472;47.592;17.640;2024-02-14T00:46:57;100403.97;;;-1.40;92.34
81005;BME280;70472;47.592;17.640;2024-02-14T00:47:34;100408.53;;;-1.44;92.28
81005;BME280;70472;47.592;17.640;2024-02-14T00:48:07;100403.28;;;-1.44;92.40
81005;BME280;70472;47.592;17.640;2024-02-14T00:48:40;100405.75;;;-1.41;92.62
81005;BME280;70472;47.592;17.640;2024-02-14T00:49:12;100403.78;;;-1.37;92.60
81005;BME280;70472;47.592;17.640;2024-02-14T00:49:45;100406.59;;;-1.40;92.65
81005;BME280;70472;47.592;17.640;2024-02-14T00:50:17;100405.66;;;-1.39;92.28
81005;BME280;70472;47.592;17.640;2024-02-14T00:50:50;100406.25;;;-1.34;92.70
81005;BME280;70472;47.592;17.640;2024-02-14T00:51:23;100402.94;;;-1.38;91.86
81005;BME280;70472;47.592;17.640;2024-02-14T00:51:55;100409.06;;;-1.37;92.61
81005;BME280;70472;47.592;17.640;2024-02-14T00:52:27;100401.94;;;-1.35;92.36
81005;BME280;70472;47.592;17.640;2024-02-14T00:53:00;100400.41;;;-1.39;91.95
81005;BME280;70472;47.592;17.640;2024-02-14T00:53:32;100403.97;;;-1.40;92.52
81005;BME280;70472;47.592;17.640;2024-02-14T00:54:05;100396.16;;;-1.42;92.68
81005;BME280;70472;47.592;17.640;2024-02-14T00:54:38;100398.84;;;-1.43;92.48
81005;BME280;70472;47.592;17.640;2024-02-14T00:55:10;100402.63;;;-1.47;92.09
81005;BME280;70472;47.592;17.640;2024-02-14T00:55:43;100399.03;;;-1.46;92.61
81005;BME280;70472;47.592;17.640;2024-02-14T00:56:15;100404.06;;;-1.42;91.84
81005;BME280;70472;47.592;17.640;2024-02-14T00:56:47;100402.94;;;-1.38;91.82
81005;BME280;70472;47.592;17.640;2024-02-14T00:57:20;100399.47;;;-1.38;92.11
81005;BME280;70472;47.592;17.640;2024-02-14T00:57:53;100400.41;;;-1.39;92.10
81005;BME280;70472;47.592;17.640;2024-02-14T00:58:25;100407.53;;;-1.41;91.90
81005;BME280;70472;47.592;17.640;2024-02-14T00:58:58;100404.13;;;-1.43;92.14
81005;BME280;70472;47.592;17.640;2024-02-14T00:59:31;100399.66;;;-1.41;91.74
81005;BME280;70472;47.592;17.640;2024-02-14T01:00:06;100402.19;;;-1.40;91.57
81005;BME280;70472;47.592;17.640;2024-02-14T01:00:39;100400.25;;;-1.36;91.76
81005;BME280;70472;47.592;17.640;2024-02-14T01:01:11;100399.03;;;-1.46;92.39
81005;BME280;70472;47.592;17.640;2024-02-14T01:01:43;100398.25;;;-1.48;91.52
81005;BME280;70472;47.592;17.640;2024-02-14T01:02:16;100405.31;;;-1.49;91.82
81005;BME280;70472;47.592;17.640;2024-02-14T01:02:49;100396.56;;;-1.49;92.39
81005;BME280;70472;47.592;17.640;2024-02-14T01:03:22;100394.13;;;-1.52;92.43
81005;BME280;70472;47.592;17.640;2024-02-14T01:03:54;100399.38;;;-1.52;91.44
81005;BME280;70472;47.592;17.640;2024-02-14T01:04:26;100399.53;;;-1.55;92.35
81005;BME280;70472;47.592;17.640;2024-02-14T01:04:59;100400.47;;;-1.56;92.42
81005;BME280;70472;47.592;17.640;2024-02-14T01:05:32;100400.38;;;-1.55;92.46
81005;BME280;70472;47.592;17.640;2024-02-14T01:06:04;100396.13;;;-1.57;92.19
81005;BME280;70472;47.592;17.640;2024-02-14T01:06:36;100404.97;;;-1.58;92.21
81005;BME280;70472;47.592;17.640;2024-02-14T01:07:09;100405.56;;;-1.53;92.75
81005;BME280;70472;47.592;17.640;2024-02-14T01:07:42;100402.94;;;-1.53;92.04
81005;BME280;70472;47.592;17.640;2024-02-14T01:08:14;100403.78;;;-1.53;92.18
81005;BME280;70472;47.592;17.640;2024-02-14T01:08:46;100391.56;;;-1.54;92.42
81005;BME280;70472;47.592;17.640;2024-02-14T01:09:19;100403.09;;;-1.56;92.98
81005;BME280;70472;47.592;17.640;2024-02-14T01:09:51;100401.81;;;-1.49;92.17
81005;BME280;70472;47.592;17.640;2024-02-14T01:10:23;100399.88;;;-1.46;92.68
81005;BME280;70472;47.592;17.640;2024-02-14T01:10:56;100402.75;;;-1.50;92.68
81005;BME280;70472;47.592;17.640;2024-02-14T01:11:28;100398.69;;;-1.56;92.35
81005;BME280;70472;47.592;17.640;2024-02-14T01:12:01;100397.84;;;-1.56;92.80
81005;BME280;70472;47.592;17.640;2024-02-14T01:12:34;100405.56;;;-1.53;92.47
81005;BME280;70472;47.592;17.640;2024-02-14T01:13:06;100407.69;;;-1.44;92.27
81005;BME280;70472;47.592;17.640;2024-02-14T01:13:39;100403.88;;;-1.39;92.83
81005;BME280;70472;47.592;17.640;2024-02-14T01:14:11;100403.03;;;-1.39;92.71
81005;BME280;70472;47.592;17.640;2024-02-14T01:14:44;100402.44;;;-1.44;92.50
81005;BME280;70472;47.592;17.640;2024-02-14T01:15:17;100398.44;;;-1.51;92.79
81005;BME280;70472;47.592;17.640;2024-02-14T01:15:49;100406.34;;;-1.51;92.10
81005;BME280;70472;47.592;17.640;2024-02-14T01:16:25;100400.22;;;-1.52;91.91
81005;BME280;70472;47.592;17.640;2024-02-14T01:16:57;100401.59;;;-1.45;92.29
81005;BME280;70472;47.592;17.640;2024-02-14T01:17:32;100393.59;;;-1.43;92.67
81005;BME280;70472;47.592;17.640;2024-02-14T01:18:05;100398.72;;;-1.40;92.36
81005;BME280;70472;47.592;17.640;2024-02-14T01:18:37;100400.25;;;-1.36;92.76
81005;BME280;70472;47.592;17.640;2024-02-14T01:19:11;100405.31;;;-1.33;92.64
81005;BME280;70472;47.592;17.640;2024-02-14T01:19:43;100403.88;;;-1.39;92.67
81005;BME280;70472;47.592;17.640;2024-02-14T01:20:16;100410.41;;;-1.46;91.89
81005;BME280;70472;47.592;17.640;2024-02-14T01:20:48;100402.00;;;-1.52;92.48
81005;BME280;70472;47.592;17.640;2024-02-14T01:21:22;100400.31;;;-1.53;92.55
81005;BME280;70472;47.592;17.640;2024-02-14T01:21:58;100400.88;;;-1.48;92.01
81005;BME280;70472;47.592;17.640;2024-02-14T01:22:30;100404.47;;;-1.49;91.39
81005;BME280;70472;47.592;17.640;2024-02-14T01:23:03;100403.69;;;-1.51;92.19
81005;BME280;70472;47.592;17.640;2024-02-14T01:23:38;100404.88;;;-1.57;91.29
81005;BME280;70472;47.592;17.640;2024-02-14T01:24:11;100412.63;;;-1.54;91.91
81005;BME280;70472;47.592;17.640;2024-02-14T01:24:43;100408.88;;;-1.50;92.05
81005;BME280;70472;47.592;17.640;2024-02-14T01:25:16;100412.34;;;-1.49;91.64
81005;BME280;70472;47.592;17.640;2024-02-14T01:25:48;100410.91;;;-1.55;92.11
81005;BME280;70472;47.592;17.640;2024-02-14T01:26:21;100410.31;;;-1.60;92.12
81005;BME280;70472;47.592;17.640;2024-02-14T01:26:53;100405.13;;;-1.62;91.94
81005;BME280;70472;47.592;17.640;2024-02-14T01:27:26;100404.28;;;-1.62;92.17
81005;BME280;70472;47.592;17.640;2024-02-14T01:27:59;100409.63;;;-1.64;91.42
81005;BME280;70472;47.592;17.640;2024-02-14T01:28:32;100404.38;;;-1.64;91.78
81005;BME280;70472;47.592;17.640;2024-02-14T01:29:04;100401.56;;;-1.61;92.10
81005;BME280;70472;47.592;17.640;2024-02-14T01:29:37;100405.97;;;-1.61;92.34
81005;BME280;70472;47.592;17.640;2024-02-14T01:30:10;100406.47;;;-1.54;92.66
81005;BME280;70472;47.592;17.640;2024-02-14T01:30:43;100404.88;;;-1.57;91.88
81005;BME280;70472;47.592;17.640;2024-02-14T01:31:16;100404.72;;;-1.54;92.31
81005;BME280;70472;47.592;17.640;2024-02-14T01:31:49;100402.34;;;-1.58;92.26
81005;BME280;70472;47.592;17.640;2024-02-14T01:32:21;100401.56;;;-1.61;91.99
81005;BME280;70472;47.592;17.640;2024-02-14T01:32:54;100398.25;;;-1.64;92.06
81005;BME280;70472;47.592;17.640;2024-02-14T01:33:26;100402.56;;;-1.63;92.22
81005;BME280;70472;47.592;17.640;2024-02-14T01:33:59;100403.28;;;-1.59;91.73
81005;BME280;70472;47.592;17.640;2024-02-14T01:34:31;100403.28;;;-1.59;92.14
81005;BME280;70472;47.592;17.640;2024-02-14T01:35:04;100401.72;;;-1.64;92.33
81005;BME280;70472;47.592;17.640;2024-02-14T01:35:37;100400.78;;;-1.63;91.79
81005;BME280;70472;47.592;17.640;2024-02-14T01:36:09;100402.50;;;-1.62;92.46
81005;BME280;70472;47.592;17.640;2024-02-14T01:36:42;100404.44;;;-1.65;91.78
81005;BME280;70472;47.592;17.640;2024-02-14T01:37:14;100396.63;;;-1.67;91.85
81005;BME280;70472;47.592;17.640;2024-02-14T01:37:47;100401.81;;;-1.65;91.90
81005;BME280;70472;47.592;17.640;2024-02-14T01:38:21;100400.28;;;-1.69;92.45
81005;BME280;70472;47.592;17.640;2024-02-14T01:38:53;100401.03;;;-1.67;92.62
81005;BME280;70472;47.592;17.640;2024-02-14T01:39:26;100402.06;;;-1.70;91.88
81005;BME280;70472;47.592;17.640;2024-02-14T01:39:59;100396.81;;;-1.70;92.37
81005;BME280;70472;47.592;17.640;2024-02-14T01:40:31;100397.22;;;-1.77;92.40
81005;BME280;70472;47.592;17.640;2024-02-14T01:41:04;100401.03;;;-1.83;92.48
81005;BME280;70472;47.592;17.640;2024-02-14T01:41:47;100403.22;;;-1.75;92.39
81005;BME280;70472;47.592;17.640;2024-02-14T01:42:21;100407.47;;;-1.73;92.57
81005;BME280;70472;47.592;17.640;2024-02-14T01:42:53;100406.63;;;-1.73;92.35
81005;BME280;70472;47.592;17.640;2024-02-14T01:43:26;100404.69;;;-1.70;92.24
81005;BME280;70472;47.592;17.640;2024-02-14T01:43:58;100406.16;;;-1.64;92.73
81005;BME280;70472;47.592;17.640;2024-02-14T01:44:32;100405.31;;;-1.65;92.82
81005;BME280;70472;47.592;17.640;2024-02-14T01:45:06;100403.84;;;-1.70;92.68
81005;BME280;70472;47.592;17.640;2024-02-14T01:45:38;100407.56;;;-1.74;92.30
81005;BME280;70472;47.592;17.640;2024-02-14T01:46:11;100409.00;;;-1.69;92.60
81005;BME280;70472;47.592;17.640;2024-02-14T01:46:44;100399.34;;;-1.68;92.37
81005;BME280;70472;47.592;17.640;2024-02-14T01:47:17;100400.03;;;-1.65;92.78
81005;BME280;70472;47.592;17.640;2024-02-14T01:47:51;100406.91;;;-1.62;92.38
81005;BME280;70472;47.592;17.640;2024-02-14T01:48:23;100406.91;;;-1.62;92.55
81005;BME280;70472;47.592;17.640;2024-02-14T01:48:56;100399.72;;;-1.58;92.78
81005;BME280;70472;47.592;17.640;2024-02-14T01:49:29;100400.78;;;-1.63;92.94
81005;BME280;70472;47.592;17.640;2024-02-14T01:50:02;100399.19;;;-1.65;91.97
81005;BME280;70472;47.592;17.640;2024-02-14T01:50:35;100404.19;;;-1.61;92.02
81005;BME280;70472;47.592;17.640;2024-02-14T01:51:11;100399.72;;;-1.58;91.84
81005;BME280;70472;47.592;17.640;2024-02-14T01:51:45;100402.50;;;-1.62;92.46
81005;BME280;70472;47.592;17.640;2024-02-14T01:52:19;100406.66;;;-1.57;92.63
81005;BME280;70472;47.592;17.640;2024-02-14T01:52:53;100401.41;;;-1.57;92.85
81005;BME280;70472;47.592;17.640;2024-02-14T01:53:30;100405.31;;;-1.65;92.50
81005;BME280;70472;47.592;17.640;2024-02-14T01:54:03;100398.50;;;-1.69;91.96
81005;BME280;70472;47.592;17.640;2024-02-14T01:54:36;100405.34;;;-1.66;91.95
81005;BME280;70472;47.592;17.640;2024-02-14T01:55:12;100403.44;;;-1.63;92.21
81005;BME280;70472;47.592;17.640;2024-02-14T01:55:45;100402.44;;;-1.60;92.52
81005;BME280;70472;47.592;17.640;2024-02-14T01:56:18;100398.25;;;-1.64;92.37
81005;BME280;70472;47.592;17.640;2024-02-14T01:56:50;100400.50;;;-1.74;92.06
81005;BME280;70472;47.592;17.640;2024-02-14T01:57:24;100405.63;;;-1.71;91.91
81005;BME280;70472;47.592;17.640;2024-02-14T01:57:57;100394.94;;;-1.68;91.96
81005;BME280;70472;47.592;17.640;2024-02-14T01:58:31;100393.41;;;-1.72;92.29
81005;BME280;70472;47.592;17.640;2024-02-14T01:59:05;100394.31;;;-1.73;92.23
81005;BME280;70472;47.592;17.640;2024-02-14T01:59:37;100392.63;;;-1.74;92.74
81005;BME280;70472;47.592;17.640;2024-02-14T02:00:11;100395.50;;;-1.78;92.56
81005;BME280;70472;47.592;17.640;2024-02-14T02:00:44;100392.88;;;-1.78;92.38
81005;BME280;70472;47.592;17.640;2024-02-14T02:01:19;100388.41;;;-1.76;92.65
81005;BME280;70472;47.592;17.640;2024-02-14T02:01:52;100396.09;;;-1.73;92.38
81005;BME280;70472;47.592;17.640;2024-02-14T02:02:26;100394.16;;;-1.70;92.10
81005;BME280;70472;47.592;17.640;2024-02-14T02:02:59;100394.94;;;-1.68;92.71
81005;BME280;70472;47.592;17.640;2024-02-14T02:03:32;100392.47;;;-1.71;92.79
81005;BME280;70472;47.592;17.640;2024-02-14T02:04:05;100400.19;;;-1.68;92.55
81005;BME280;70472;47.592;17.640;2024-02-14T02:04:37;100399.19;;;-1.65;92.55
81005;BME280;70472;47.592;17.640;2024-02-14T02:05:10;100387.97;;;-1.69;92.77
81005;BME280;70472;47.592;17.640;2024-02-14T02:05:42;100389.38;;;-1.79;93.14
81005;BME280;70472;47.592;17.640;2024-02-14T02:06:15;100393.13;;;-1.83;92.65
81005;BME280;70472;47.592;17.640;2024-02-14T02:06:48;100392.03;;;-1.79;92.53
81005;BME280;70472;47.592;17.640;2024-02-14T02:07:20;100393.41;;;-1.72;92.33
81005;BME280;70472;47.592;17.640;2024-02-14T02:07:53;100394.59;;;-1.77;92.88
81005;BME280;70472;47.592;17.640;2024-02-14T02:08:25;100397.28;;;-1.79;93.09
81005;BME280;70472;47.592;17.640;2024-02-14T02:08:58;100396.09;;;-1.73;93.24
81005;BME280;70472;47.592;17.640;2024-02-14T02:09:31;100391.69;;;-1.73;93.11
81005;BME280;70472;47.592;17.640;2024-02-14T02:10:05;100399.66;;;-1.74;93.21
81005;BME280;70472;47.592;17.640;2024-02-14T02:10:40;100397.88;;;-1.74;93.14
81005;BME280;70472;47.592;17.640;2024-02-14T02:11:13;100391.88;;;-1.76;92.86
81005;BME280;70472;47.592;17.640;2024-02-14T02:11:53;100396.38;;;-1.78;92.90
81005;BME280;70472;47.592;17.640;2024-02-14T02:12:26;100386.75;;;-1.79;92.84
81005;BME280;70472;47.592;17.640;2024-02-14T02:12:59;100391.16;;;-1.79;92.32
81005;BME280;70472;47.592;17.640;2024-02-14T02:13:32;100398.13;;;-1.78;92.74
81005;BME280;70472;47.592;17.640;2024-02-14T02:14:04;100394.50;;;-1.76;92.98
81005;BME280;70472;47.592;17.640;2024-02-14T02:14:36;100392.47;;;-1.71;93.16
81005;BME280;70472;47.592;17.640;2024-02-14T02:15:09;100393.41;;;-1.72;92.74
81005;BME280;70472;47.592;17.640;2024-02-14T02:15:42;100388.47;;;-1.78;92.44
81005;BME280;70472;47.592;17.640;2024-02-14T02:16:14;100397.28;;;-1.79;92.68
81005;BME280;70472;47.592;17.640;2024-02-14T02:16:47;100393.75;;;-1.78;92.66
81005;BME280;70472;47.592;17.640;2024-02-14T02:17:19;100393.66;;;-1.76;92.65
81005;BME280;70472;47.592;17.640;2024-02-14T02:17:53;100399.75;;;-1.76;91.76
81005;BME280;70472;47.592;17.640;2024-02-14T02:18:26;100395.59;;;-1.80;92.38
81005;BME280;70472;47.592;17.640;2024-02-14T02:19:00;100395.59;;;-1.80;92.86
81005;BME280;70472;47.592;17.640;2024-02-14T02:19:34;100397.53;;;-1.83;92.89
81005;BME280;70472;47.592;17.640;2024-02-14T02:20:07;100393.88;;;-1.81;92.06
81005;BME280;70472;47.592;17.640;2024-02-14T02:20:40;100397.28;;;-1.79;92.73
81005;BME280;70472;47.592;17.640;2024-02-14T02:21:12;100399.00;;;-1.78;92.86
81005;BME280;70472;47.592;17.640;2024-02-14T02:21:44;100400.84;;;-1.80;92.24
81005;BME280;70472;47.592;17.640;2024-02-14T02:22:17;100392.88;;;-1.78;92.25
81005;BME280;70472;47.592;17.640;2024-02-14T02:22:49;100393.75;;;-1.78;92.59
81005;BME280;70472;47.592;17.640;2024-02-14T02:23:22;100395.44;;;-1.77;92.43
81005;BME280;70472;47.592;17.640;2024-02-14T02:23:54;100404.41;;;-1.81;92.15
81005;BME280;70472;47.592;17.640;2024-02-14T02:24:31;100399.75;;;-1.76;92.81
81005;BME280;70472;47.592;17.640;2024-02-14T02:25:04;100393.56;;;-1.75;93.05
81005;BME280;70472;47.592;17.640;2024-02-14T02:25:36;100394.41;;;-1.74;92.38
81005;BME280;70472;47.592;17.640;2024-02-14T02:26:09;100394.50;;;-1.76;92.41
81005;BME280;70472;47.592;17.640;2024-02-14T02:26:41;100396.19;;;-1.75;93.10
81005;BME280;70472;47.592;17.640;2024-02-14T02:27:14;100393.81;;;-1.79;92.35
81005;BME280;70472;47.592;17.640;2024-02-14T02:27:47;100399.25;;;-1.82;93.10
81005;BME280;70472;47.592;17.640;2024-02-14T02:28:19;100394.81;;;-1.82;92.12
81005;BME280;70472;47.592;17.640;2024-02-14T02:28:52;100398.22;;;-1.80;92.69
81005;BME280;70472;47.592;17.640;2024-02-14T02:29:24;100394.72;;;-1.80;92.77
81005;BME280;70472;47.592;17.640;2024-02-14T02:29:57;100398.41;;;-1.83;92.72
81005;BME280;70472;47.592;17.640;2024-02-14T02:30:29;100400.84;;;-1.80;92.54
81005;BME280;70472;47.592;17.640;2024-02-14T02:31:02;100406.28;;;-1.83;92.28
81005;BME280;70472;47.592;17.640;2024-02-14T02:31:35;100405.34;;;-1.82;92.86
81005;BME280;70472;47.592;17.640;2024-02-14T02:32:08;100400.09;;;-1.82;92.49
81005;BME280;70472;47.592;17.640;2024-02-14T02:32:42;100404.50;;;-1.82;93.14
81005;BME280;70472;47.592;17.640;2024-02-14T02:33:15;100402.25;;;-1.90;92.99
81005;BME280;70472;47.592;17.640;2024-02-14T02:33:47;100407.59;;;-1.92;92.48
81005;BME280;70472;47.592;17.640;2024-02-14T02:34:20;100405.75;;;-1.90;92.16
81005;BME280;70472;47.592;17.640;2024-02-14T02:34:52;100404.88;;;-1.90;92.37
81005;BME280;70472;47.592;17.640;2024-02-14T02:35:26;100406.59;;;-1.89;92.54
81005;BME280;70472;47.592;17.640;2024-02-14T02:35:58;100408.63;;;-1.94;92.71
81005;BME280;70472;47.592;17.640;2024-02-14T02:36:31;100412.84;;;-1.92;92.78
81005;BME280;70472;47.592;17.640;2024-02-14T02:37:03;100407.59;;;-1.92;92.46
81005;BME280;70472;47.592;17.640;2024-02-14T02:37:36;100406.59;;;-1.89;93.07
81005;BME280;70472;47.592;17.640;2024-02-14T02:38:08;100404.28;;;-1.95;92.69
81005;BME280;70472;47.592;17.640;2024-02-14T02:38:41;100407.06;;;-1.98;93.41
81005;BME280;70472;47.592;17.640;2024-02-14T02:39:13;100407.91;;;-1.98;93.69
81005;BME280;70472;47.592;17.640;2024-02-14T02:39:46;100405.91;;;-1.93;93.07
81005;BME280;70472;47.592;17.640;2024-02-14T02:40:19;100404.03;;;-1.91;93.75
81005;BME280;70472;47.592;17.640;2024-02-14T02:40:51;100412.75;;;-1.90;93.46
81005;BME280;70472;47.592;17.640;2024-02-14T02:41:24;100417.13;;;-1.89;93.35
81005;BME280;70472;47.592;17.640;2024-02-14T02:41:56;100408.44;;;-1.91;93.48
81005;BME280;70472;47.592;17.640;2024-02-14T02:42:29;100407.50;;;-1.90;93.39
81005;BME280;70472;47.592;17.640;2024-02-14T02:43:02;100406.66;;;-1.91;93.27
81005;BME280;70472;47.592;17.640;2024-02-14T02:43:34;100405.19;;;-1.96;92.97
81005;BME280;70472;47.592;17.640;2024-02-14T02:44:07;100409.88;;;-2.01;93.43
81005;BME280;70472;47.592;17.640;2024-02-14T02:44:39;100409.09;;;-2.03;93.66
81005;BME280;70472;47.592;17.640;2024-02-14T02:45:12;100410.78;;;-2.02;93.73
81005;BME280;70472;47.592;17.640;2024-02-14T02:45:44;100415.28;;;-2.04;93.85
81005;BME280;70472;47.592;17.640;2024-02-14T02:46:17;100414.50;;;-2.06;93.43
81005;BME280;70472;47.592;17.640;2024-02-14T02:46:51;100416.34;;;-2.08;93.42
81005;BME280;70472;47.592;17.640;2024-02-14T02:47:23;100418.75;;;-2.04;92.81
81005;BME280;70472;47.592;17.640;2024-02-14T02:47:56;100410.78;;;-2.02;93.54
81005;BME280;70472;47.592;17.640;2024-02-14T02:48:28;100416.97;;;-2.03;93.97
81005;BME280;70472;47.592;17.640;2024-02-14T02:49:01;100417.75;;;-2.01;93.81
81005;BME280;70472;47.592;17.640;2024-02-14T02:49:33;100413.50;;;-2.04;92.99